ADDS METAR Data INFO
IDs: Format: Raw Decoded Include TAF

Data at: 0636 UTC 15 Dec 2017

KPIH 150615Z AUTO 07006KT 3/4SM R21/3000V4500FT BR VV003 M06/M07 A3041 RMK AO2 T10561067
KPIH 150606Z AUTO 05004KT 1SM R21/3000VP6000FT BR VV003 M06/M07 A3042 RMK AO2 T10561067
KPIH 150553Z AUTO 06005KT 3/4SM R21/2800V3000FT BR VV002 M06/M07 A3042 RMK AO2 SLP346 60000 I1000 I6001 T10561067 11050 21056 56005
KPIH 150453Z 03006KT 1/2SM R21/2200V3000FT FZFG VV002 M05/M06 A3043 RMK AO2 SLP349 I1000 T10501061
KPIH 150424Z 36006KT 1/2SM R21/1800V2200FT FZFG VV002 M05/M06 A3042 RMK AO2 I1000 T10501061
KPIH 150405Z 02004KT 1/4SM R21/1800V2200FT FZFG VV002 M05/M06 A3041 RMK AO2 T10501061
KPIH 150353Z 01005KT 1/2SM R21/2000V2400FT FZFG VV002 M05/M06 A3041 RMK AO2 SLP344 T10501061
KPIH 150334Z 02005KT 1/2SM R21/2000V2200FT FZFG VV002 M05/M06 A3043 RMK AO2 T10501061
KPIH 150300Z 02005KT 1/2SM R21/2000V2400FT FZFG VV002 M05/M06 A3044 RMK AO2 T10501061
KPIH 150253Z 02005KT 1/2SM R21/1600V2200FT FZFG VV002 M05/M06 A3044 RMK AO2 SLP352 60000 I3001 T10501061 51002
KPIH 150224Z 05003KT 1/4SM R21/1600V1800FT FZFG VV002 M05/M06 A3043 RMK AO2 T10501061
KPIH 150214Z 04003KT 1/4SM R21/1200V2400FT FZFG VV002 M05/M06 A3043 RMK AO2 T10501061
KPIH 150200Z 03004KT 1/2SM R21/1400V2200FT FZFG VV002 M05/M06 A3044 RMK AO2 T10501061
KPIH 150153Z 05004KT 1/4SM R21/1400V1800FT FZFG VV002 M05/M06 A3043 RMK AO2 SLP351 I1001 T10501056
KPIH 150149Z 04004KT 1/4SM R21/1400V2400FT FZFG VV002 M05/M06 A3043 RMK AO2 I1001
KPIH 150112Z 03004KT 1/2SM R21/1800V2400FT FZFG VV002 M05/M06 A3043 RMK AO2 T10501061
KPIH 150100Z 00000KT 1/2SM R21/1400V1800FT FZFG VV002 M05/M06 A3042 RMK AO2 T10501061
KPIH 150049Z 04003KT 1/4SM R21/1800V3500FT FZFG VV002 M05/M06 A3043 RMK AO2 SNB07E17 SLP349 P0000 I1000 T10501061
KPIH 150048Z 04003KT 1/4SM R21/2000V3500FT FZFG VV002 M05/M06 A3043 RMK AO2 SNB07E17 P0000 I1000
KPIH 150021Z 00000KT 1 1/2SM R21/3000VP6000FT BR OVC003 M05/M06 A3044 RMK AO2 VIS 1/2V5 SNB07E17 P0000 T10501061
KPIH 142353Z 02004KT 1/2SM R21/2400V4000FT FZFG VV003 M05/M06 A3044 RMK AO2 SLPNO T10501061 11044 21056 56004
KPIH 142253Z VRB03KT 1 1/2SM BR OVC003 M04/M06 A3045 RMK AO2 SLP354 T10441061
KPIH 142153Z VRB04KT 1 1/2SM BR OVC004 M04/M06 A3045 RMK AO2 SLP355 T10441056
KPIH 142053Z 02006KT 2SM BR OVC003 M04/M06 A3046 RMK AO2 SLP357 T10441061 56022
KPIH 142027Z 06005KT 1 3/4SM BR OVC002 M04/M06 A3046 RMK AO2 T10441061
KPIH 141953Z 06007KT 1SM R21/3000VP6000FT BR OVC002 M05/M06 A3048 RMK AO2 SLP364 T10501061
KPIH 141928Z VRB04KT 1 1/2SM BR OVC003 M05/M07 A3049 RMK AO2 T10501067
KPIH 141917Z 00000KT 3/4SM R21/6000VP6000FT BR OVC002 M05/M06 A3050 RMK AO2 T10501061
KPIH 141902Z 00000KT 1 1/4SM R21/3000V4500FT BR OVC002 M05/M06 A3050 RMK AO2 T10501061
KPIH 141853Z 06004KT 3/4SM R21/2000V3500FT BR OVC002 M05/M06 A3050 RMK AO2 SLP372 T10501061
KPIH 141753Z 00000KT 1/2SM R21/2600V3000FT FZFG OVC002 M06/M07 A3053 RMK AO2 SLP383 60000 I6002 T10561067 11056 21067 51012
KPIH 141738Z 00000KT 1/2SM R21/2200V2400FT FZFG VV003 M06/M07 A3053 RMK AO2 T10561067
KPIH 141718Z 00000KT 1/2SM R21/2000V2200FT FZFG VV003 M06/M07 A3053 RMK AO2 T10561067
KPIH 141653Z 00000KT 1/2SM R21/2200V3000FT FZFG VV003 M06/M07 A3052 RMK AO2 SLP377 T10561067
KPIH 141638Z 00000KT 1/4SM R21/3000V4000FT FZFG VV003 M06/M07 A3052 RMK AO2 T10611067
KPIH 141612Z 00000KT 3/4SM R21/1800V2600FT BR OVC003 M06/M07 A3051 RMK AO2 T10611072
KPIH 141604Z 00000KT 1SM R21/1600V2200FT BR OVC003 M06/M07 A3051 RMK AO2 T10611072
KPIH 141553Z 29003KT 1/2SM R21/2200V4000FT FZFG VV003 M06/M07 A3051 RMK AO2 SLP377 T10611072
KPIH 141546Z 00000KT 1/4SM R21/1800V3500FT FZFG VV003 M06/M07 A3050 RMK AO2 T10611072
KPIH 141521Z 22003KT 1/4SM R21/1800V2200FT FZFG VV002 M06/M07 A3050 RMK AO2 T10611072
KPIH 141504Z 23003KT 1/4SM R21/1800V2400FT FZFG VV002 M06/M07 A3049 RMK AO2 T10611067
KPIH 141453Z 20004KT 1/2SM R21/1600V1800FT FZFG VV002 M06/M07 A3049 RMK AO2 SNB46E51 SLP369 P0000 60000 I1001 I3002 T10611072 50004
KPIH 141353Z 00000KT 1/2SM R21/1800V2200FT FZFG VV002 M06/M07 A3049 RMK AO2 SLP371 T10611072 $
KPIH 141349Z 22004KT 1/2SM R21/2000V2200FT FZFG VV002 M06/M07 A3050 RMK AO2 $
KPIH 141335Z 22004KT 1/2SM R21/2000V2400FT FZFG VV002 M06/M07 A3049 RMK AO2 T10611072 $
KPIH 141312Z 19003KT 1/2SM R21/1800V2200FT FZFG VV002 M06/M07 A3048 RMK AO2 T10611067 $
KPIH 141253Z 18004KT 1/2SM R21/2600V3500FT FZFG VV003 M06/M08 A3048 RMK AO2 SLP364 I1001 T10611078 $
KPIH 141233Z AUTO 16004KT 3/4SM R21/4000V5500FT BR VV003 M07/M07 A3047 RMK AO2 I1/// T10671072 $
KPIH 141225Z AUTO 18004KT 1SM R21/4000V5000FT BR VV003 M07/M07 A3047 RMK AO2 I1/// T10671072 $
KPIH 141209Z AUTO 16003KT 3/4SM R21/4000VP6000FT BR M07/M08 A3047 RMK AO2 T10671078 $
KPIH 141131Z AUTO 22006KT 1 1/4SM R21/4500VP6000FT BR OVC003 M07/M07 A3047 RMK AO2 T10671072
KPIH 141053Z AUTO 22005KT 1/2SM R21/2400V4000FT FZFG VV002 M06/M07 A3045 RMK AO2 SLP356 I1001 T10611072
KPIH 141035Z AUTO 23005KT 3/4SM R21/2800V5000FT BR VV003 M06/M07 A3045 RMK AO2 I1000 T10611072
KPIH 140953Z AUTO 21007KT 1 3/4SM BR OVC002 M07/M07 A3044 RMK AO2 SLP353 I1001 T10671072
KPIH 140939Z AUTO 21007KT 2SM BR OVC002 M07/M07 A3044 RMK AO2 I1000 T10671072
KPIH 140853Z AUTO 24010KT 5SM BR OVC002 M06/M07 A3043 RMK AO2 SLP349 T10611067 53013
KPIH 140753Z AUTO 26011KT 8SM OVC004 M06/M06 A3041 RMK AO2 SLP342 T10561061
KPIH 140733Z AUTO 24008KT 9SM OVC004 M06/M06 A3042 RMK AO2 T10561061
KPIH 140653Z AUTO 23009KT 9SM OVC006 M06/M07 A3039 RMK AO2 SLP335 T10561067 410331072
KPIH 140553Z AUTO 22008KT 9SM OVC007 M04/M06 A3039 RMK AO2 SLP334 60000 T10441056 11033 21050 51016
KPIH 140453Z 22009KT 10SM OVC007 M04/M06 A3038 RMK AO2 SLP330 T10391061
KPIH 140353Z 20006KT 10SM BKN007 OVC013 M05/M07 A3036 RMK AO2 SLP328 T10501067
KPIH 140253Z 19007KT 10SM OVC008 M04/M06 A3034 RMK AO2 SLP317 60000 T10441061 52019
KPIH 140200Z 24006KT 10SM OVC009 M04/M06 A3032 RMK AO2 T10391056
KPIH 140153Z 25008KT 10SM SCT008 BKN028 OVC043 M04/M06 A3032 RMK AO2 SNE42 SLP311 P0000 T10391056
KPIH 140127Z 21006KT 9SM -SN SCT008 BKN028 OVC043 M04/M06 A3030 RMK AO2 P0000 T10391056
KPIH 140053Z 20005KT 9SM -SN BKN046 OVC065 M04/M06 A3029 RMK AO2 SNB03 SLP302 P0000 T10391056
KPIH 132353Z 20004KT 9SM FEW009 BKN046 OVC085 M03/M05 A3027 RMK AO2 SNB07E28 SLP293 P0000 60000 I1001 I6002 T10331050 11033 21056 55000
KPIH 132340Z 20004KT 9SM FEW009 BKN065 OVC085 M03/M05 A3027 RMK AO2 SNB07E28 P0000 T10331050
KPIH 132253Z 28005KT 9SM BKN055 OVC070 M04/M06 A3027 RMK AO2 SLP291 I1000 T10391056
KPIH 132153Z 24005KT 10SM BKN070 OVC080 M04/M06 A3026 RMK AO2 SLP290 I1000 T10391056
KPIH 132053Z 21004KT 9SM FEW006 SCT036 OVC065 M04/M06 A3027 RMK AO2 SLP295 I1000 I3001 T10441056 56036
KPIH 131953Z 32004KT 7SM FEW006 OVC060 M04/M06 A3028 RMK AO2 SLP296 I1001 T10441061
KPIH 131853Z 00000KT 7SM SCT004 BKN060 OVC075 M05/M06 A3031 RMK AO2 SLP306 I1000 T10501061